createdAt,value
2018-04-17T00:00:01.503Z,91.40
2018-04-17T00:02:29.791Z,91.70
2018-04-17T00:04:58.024Z,91.80
2018-04-17T00:07:25.617Z,91.80
2018-04-17T00:09:53.895Z,91.70
2018-04-17T00:12:22.170Z,92.00
2018-04-17T00:14:50.462Z,92.10
2018-04-17T00:17:17.944Z,92.10
2018-04-17T00:19:45.500Z,92.10
2018-04-17T00:22:13.064Z,92.10
2018-04-17T00:24:40.532Z,92.30
2018-04-17T00:27:08.074Z,92.30
2018-04-17T00:29:35.550Z,92.30
2018-04-17T00:32:03.048Z,92.30
2018-04-17T00:34:31.289Z,92.60
2018-04-17T00:36:58.784Z,92.30
2018-04-17T00:39:27.031Z,92.40
2018-04-17T00:41:54.512Z,92.40
2018-04-17T00:44:22.763Z,92.60
2018-04-17T00:46:50.250Z,92.50
2018-04-17T00:49:18.496Z,92.70
2018-04-17T00:51:46.024Z,92.70
2018-04-17T00:54:13.582Z,92.70
2018-04-17T00:56:41.144Z,92.80
2018-04-17T00:59:08.626Z,92.80
2018-04-17T01:01:36.124Z,92.70
2018-04-17T01:04:04.355Z,92.90
2018-04-17T01:06:31.953Z,92.90
2018-04-17T01:09:00.195Z,92.90
2018-04-17T01:11:27.735Z,92.90
2018-04-17T01:13:55.214Z,92.90
2018-04-17T01:16:22.905Z,93.00
2018-04-17T01:18:51.192Z,93.20
2018-04-17T01:21:19.446Z,93.20
2018-04-17T01:23:46.927Z,93.10
2018-04-17T01:26:15.279Z,93.60
2018-04-17T01:28:42.760Z,93.60
2018-04-17T01:31:11.059Z,94.00
2018-04-17T01:33:38.575Z,93.90
2018-04-17T01:36:06.075Z,94.00
2018-04-17T01:38:33.563Z,94.10
2018-04-17T01:41:01.092Z,94.10
2018-04-17T01:43:28.868Z,94.30
2018-04-17T01:45:56.393Z,94.70
2018-04-17T01:48:23.889Z,94.80
2018-04-17T01:50:51.357Z,94.90
2018-04-17T01:53:18.843Z,94.80
2018-04-17T01:55:46.423Z,94.90
2018-04-17T01:58:14.676Z,95.10
2018-04-17T02:00:42.145Z,95.00
2018-04-17T02:03:10.412Z,95.10
2018-04-17T02:05:37.887Z,95.10
2018-04-17T02:08:06.135Z,95.20
2018-04-17T02:10:33.649Z,95.20
2018-04-17T02:13:01.152Z,95.30
2018-04-17T02:15:29.383Z,95.00
2018-04-17T02:17:56.864Z,95.10
2018-04-17T02:20:24.322Z,95.40
2018-04-17T02:22:51.808Z,95.40
2018-04-17T02:25:19.273Z,95.50
2018-04-17T02:27:47.548Z,95.70
2018-04-17T02:30:15.829Z,95.70
2018-04-17T02:32:44.082Z,95.90
2018-04-17T02:35:11.551Z,95.90
2018-04-17T02:37:39.173Z,96.00
2018-04-17T02:40:06.711Z,95.90
2018-04-17T02:42:34.192Z,96.10
2018-04-17T02:45:01.663Z,96.30
2018-04-17T02:47:29.152Z,96.20
2018-04-17T02:49:57.416Z,96.20
2018-04-17T02:52:24.903Z,96.20
2018-04-17T02:54:52.367Z,96.30
2018-04-17T02:57:19.880Z,96.40
2018-04-17T02:59:47.447Z,96.30
2018-04-17T03:02:15.001Z,96.30
2018-04-17T03:04:42.464Z,96.40
2018-04-17T03:07:09.948Z,96.50
2018-04-17T03:09:37.423Z,96.70
2018-04-17T03:12:04.913Z,96.40
2018-04-17T03:14:32.375Z,96.70
2018-04-17T03:16:59.854Z,96.60
2018-04-17T03:19:28.124Z,96.80
2018-04-17T03:21:55.651Z,96.70
2018-04-17T03:24:23.141Z,96.80
2018-04-17T03:26:51.399Z,97.00
2018-04-17T03:29:18.856Z,97.00
2018-04-17T03:31:46.339Z,97.30
2018-04-17T03:34:14.568Z,97.60
2018-04-17T03:36:42.045Z,97.60
2018-04-17T03:39:09.680Z,97.70
2018-04-17T03:41:37.143Z,97.70
2018-04-17T03:44:04.644Z,97.90
2018-04-17T03:46:32.911Z,97.70
2018-04-17T03:49:00.399Z,97.70
2018-04-17T03:51:27.884Z,97.70
2018-04-17T03:53:55.383Z,97.70
2018-04-17T03:56:22.851Z,97.90
2018-04-17T03:58:51.162Z,97.70
2018-04-17T04:01:18.721Z,97.60
2018-04-17T04:03:46.208Z,97.90
2018-04-17T04:06:13.676Z,98.00
2018-04-17T04:08:41.192Z,98.00
2018-04-17T04:11:08.754Z,97.90
2018-04-17T04:13:36.241Z,98.00
2018-04-17T04:16:03.709Z,98.10
2018-04-17T04:18:43.088Z,98.00
2018-04-17T04:21:22.280Z,98.10
2018-04-17T04:24:01.752Z,98.00
2018-04-17T04:26:31.772Z,97.90
2018-04-17T04:29:00.022Z,97.80
2018-04-17T04:31:27.488Z,97.70
2018-04-17T04:33:55.803Z,97.80
2018-04-17T04:36:23.264Z,97.80
2018-04-17T04:38:51.717Z,97.80
2018-04-17T04:41:19.955Z,98.00
2018-04-17T04:43:47.439Z,98.00
2018-04-17T04:46:15.679Z,98.10
2018-04-17T04:48:43.173Z,98.10
2018-04-17T04:51:11.421Z,98.10
2018-04-17T04:53:39.244Z,98.10
2018-04-17T04:56:06.717Z,98.20
2018-04-17T04:58:34.268Z,98.30
2018-04-17T05:01:01.739Z,98.10
2018-04-17T05:06:03.177Z,98.20
2018-04-17T05:08:30.742Z,98.10
2018-04-17T05:10:58.267Z,98.10
2018-04-17T05:13:26.541Z,98.10
2018-04-17T05:15:54.000Z,98.10
2018-04-17T05:18:22.287Z,98.10
2018-04-17T05:20:50.559Z,98.10
2018-04-17T05:23:18.810Z,98.10
2018-04-17T05:25:46.291Z,98.00
2018-04-17T05:28:14.539Z,97.90
2018-04-17T05:30:42.093Z,97.90
2018-04-17T05:33:09.592Z,97.80
2018-04-17T05:35:37.818Z,97.60
2018-04-17T05:38:05.392Z,97.60
2018-04-17T05:40:32.884Z,97.80
2018-04-17T05:43:01.172Z,97.60
2018-04-17T05:45:28.654Z,97.60
2018-04-17T05:47:56.132Z,97.70
2018-04-17T05:50:23.609Z,97.60
2018-04-17T05:52:51.218Z,97.50
2018-04-17T05:55:18.726Z,97.50
2018-04-17T05:57:46.211Z,97.30
2018-04-17T06:00:14.437Z,97.30
2018-04-17T06:02:41.908Z,97.30
2018-04-17T06:05:09.402Z,97.20
2018-04-17T06:07:36.876Z,97.10
2018-04-17T06:10:04.393Z,97.00
2018-04-17T06:12:31.864Z,96.80
2018-04-17T06:15:00.129Z,96.70
2018-04-17T06:17:28.374Z,96.60
2018-04-17T06:19:56.008Z,96.50
2018-04-17T06:22:23.484Z,96.50
2018-04-17T06:24:50.984Z,96.40
2018-04-17T06:27:19.220Z,96.30
2018-04-17T06:29:46.725Z,96.20
2018-04-17T06:32:15.007Z,96.10
2018-04-17T06:34:43.264Z,96.10
2018-04-17T06:37:10.744Z,96.10
2018-04-17T06:39:38.989Z,96.10
2018-04-17T06:42:07.099Z,96.10
2018-04-17T06:44:35.335Z,96.10
2018-04-17T06:47:02.843Z,96.10
2018-04-17T06:49:30.342Z,96.10
2018-04-17T06:51:57.807Z,96.00
2018-04-17T06:54:25.279Z,95.80
2018-04-17T06:56:53.590Z,95.90
2018-04-17T06:59:21.083Z,95.80
2018-04-17T07:01:48.545Z,95.70
2018-04-17T07:04:16.056Z,95.50
2018-04-17T07:06:43.526Z,95.60
2018-04-17T07:09:11.011Z,95.00
2018-04-17T07:11:38.627Z,94.70
2018-04-17T07:14:06.062Z,95.00
2018-04-17T07:16:34.332Z,94.40
2018-04-17T07:19:01.842Z,94.30
2018-04-17T07:21:29.327Z,94.20
2018-04-17T07:23:56.943Z,94.10
2018-04-17T07:26:24.412Z,93.70
2018-04-17T07:28:51.895Z,93.50
2018-04-17T07:31:19.393Z,93.10
2018-04-17T07:33:47.717Z,92.70
2018-04-17T07:36:15.187Z,92.70
2018-04-17T07:38:42.695Z,92.60
2018-04-17T07:41:10.196Z,92.40
2018-04-17T07:43:37.705Z,92.20
2018-04-17T07:46:05.991Z,91.90
2018-04-17T07:48:45.563Z,91.80
2018-04-17T07:51:13.032Z,91.70
2018-04-17T07:53:40.510Z,91.60
2018-04-17T07:56:07.989Z,91.70
2018-04-17T07:58:36.239Z,91.40
2018-04-17T08:01:03.750Z,91.40
2018-04-17T08:03:31.229Z,91.20
2018-04-17T08:05:58.734Z,91.20
2018-04-17T08:08:27.012Z,91.10
2018-04-17T08:10:55.243Z,91.00
2018-04-17T08:13:22.733Z,90.90
2018-04-17T08:15:50.999Z,90.70
2018-04-17T08:18:19.262Z,90.80
2018-04-17T08:20:46.765Z,90.80
2018-04-17T08:23:15.005Z,90.80
2018-04-17T08:25:42.496Z,90.70
2018-04-17T08:28:10.737Z,90.80
2018-04-17T08:30:38.244Z,90.70
2018-04-17T08:33:05.720Z,90.70
2018-04-17T08:35:33.199Z,90.70
2018-04-17T08:38:00.677Z,90.60
2018-04-17T08:40:28.195Z,90.60
2018-04-17T08:42:55.679Z,90.80
2018-04-17T08:45:23.168Z,90.70
2018-04-17T08:47:51.444Z,90.90
2018-04-17T08:50:19.686Z,90.70
2018-04-17T08:52:47.282Z,90.70
2018-04-17T08:55:15.530Z,90.50
2018-04-17T08:57:43.010Z,90.40
2018-04-17T09:00:11.271Z,90.20
2018-04-17T09:02:38.783Z,90.20
2018-04-17T09:05:06.280Z,90.20
2018-04-17T09:07:33.737Z,90.00
2018-04-17T09:10:01.988Z,89.60
2018-04-17T09:12:29.468Z,89.50
2018-04-17T09:14:57.007Z,89.50
2018-04-17T09:17:24.479Z,89.30
2018-04-17T09:19:52.793Z,88.70
2018-04-17T09:22:21.250Z,88.80
2018-04-17T09:24:50.264Z,88.40
2018-04-17T09:27:18.541Z,88.10
2018-04-17T09:29:46.810Z,87.80
2018-04-17T09:32:15.060Z,87.50
2018-04-17T09:34:42.540Z,87.50
2018-04-17T09:37:10.038Z,87.20
2018-04-17T09:39:37.528Z,87.00
2018-04-17T09:42:06.582Z,86.30
2018-04-17T09:44:34.076Z,86.20
2018-04-17T09:47:01.600Z,87.10
2018-04-17T09:49:29.237Z,85.10
2018-04-17T09:51:57.470Z,84.90
2018-04-17T09:54:24.957Z,85.00
2018-04-17T09:56:53.195Z,84.70
2018-04-17T09:59:20.704Z,84.70
2018-04-17T10:01:48.247Z,84.20
2018-04-17T10:04:16.522Z,84.50
2018-04-17T10:06:44.765Z,84.20
2018-04-17T10:09:12.310Z,84.30
2018-04-17T10:11:39.736Z,84.60
2018-04-17T10:14:07.249Z,84.30
2018-04-17T10:16:35.503Z,84.00
2018-04-17T10:19:02.992Z,84.00
2018-04-17T10:21:31.265Z,82.90
2018-04-17T10:23:59.557Z,81.80
2018-04-17T10:26:27.807Z,82.10
2018-04-17T10:28:55.268Z,82.00
2018-04-17T10:31:22.838Z,82.90
2018-04-17T10:33:50.333Z,83.00
2018-04-17T10:36:17.832Z,82.20
2018-04-17T10:38:45.311Z,81.60
2018-04-17T10:41:12.803Z,80.80
2018-04-17T10:43:40.327Z,80.30
2018-04-17T10:46:08.576Z,72.10
2018-04-17T10:48:36.052Z,72.00
2018-04-17T10:51:03.656Z,74.00
2018-04-17T10:53:31.124Z,74.80
2018-04-17T10:55:58.613Z,75.10
2018-04-17T10:58:26.091Z,76.40
2018-04-17T11:00:53.586Z,77.30
2018-04-17T11:03:21.088Z,77.40
2018-04-17T11:05:48.556Z,74.40
2018-04-17T11:08:16.022Z,75.40
2018-04-17T11:10:43.533Z,73.60
2018-04-17T11:13:11.019Z,74.50
2018-04-17T11:15:38.499Z,72.60
2018-04-17T11:18:06.769Z,74.00
2018-04-17T11:20:34.243Z,73.60
2018-04-17T11:23:02.473Z,73.00
2018-04-17T11:25:29.955Z,73.00
2018-04-17T11:27:57.442Z,71.90
2018-04-17T11:30:25.686Z,72.30
2018-04-17T11:32:53.148Z,72.10
2018-04-17T11:35:20.678Z,69.80
2018-04-17T11:37:48.197Z,67.90
2018-04-17T11:40:15.695Z,66.40
2018-04-17T11:42:43.159Z,66.90
2018-04-17T11:45:10.756Z,66.30
2018-04-17T11:47:38.980Z,65.00
2018-04-17T11:50:06.481Z,65.00
2018-04-17T11:52:34.736Z,65.90
2018-04-17T11:55:02.226Z,65.80
2018-04-17T11:57:30.493Z,65.00
2018-04-17T11:59:58.752Z,66.30
2018-04-17T12:02:26.345Z,66.10
2018-04-17T12:04:53.869Z,66.50
2018-04-17T12:07:21.333Z,65.00
2018-04-17T12:09:48.839Z,64.60
2018-04-17T12:12:16.345Z,65.90
2018-04-17T12:14:43.844Z,64.90
2018-04-17T12:17:11.305Z,64.60
2018-04-17T12:19:38.789Z,65.30
2018-04-17T12:22:06.256Z,65.20
2018-04-17T12:24:33.840Z,62.30
2018-04-17T12:27:01.318Z,64.60
2018-04-17T12:29:28.803Z,63.20
2018-04-17T12:31:56.265Z,61.10
2018-04-17T12:34:23.742Z,59.60
2018-04-17T12:36:51.215Z,58.80
2018-04-17T12:39:18.689Z,59.90
2018-04-17T12:41:46.949Z,63.10
2018-04-17T12:44:15.203Z,62.70
2018-04-17T12:46:42.704Z,62.70
2018-04-17T12:49:10.948Z,60.00
2018-04-17T12:51:38.439Z,59.90
2018-04-17T12:54:06.706Z,60.90
2018-04-17T12:56:34.949Z,60.90
2018-04-17T12:59:02.471Z,60.80
2018-04-17T13:01:30.011Z,61.30
2018-04-17T13:03:58.239Z,59.00
2018-04-17T13:06:25.736Z,58.90
2018-04-17T13:08:53.976Z,58.00
2018-04-17T13:11:21.464Z,57.90
2018-04-17T13:13:49.696Z,56.90
2018-04-17T13:16:17.207Z,56.80
2018-04-17T13:18:45.454Z,55.70
2018-04-17T13:21:12.939Z,55.40
2018-04-17T13:23:41.185Z,54.30
2018-04-17T13:26:08.683Z,54.30
2018-04-17T13:28:36.147Z,53.10
2018-04-17T13:31:03.717Z,53.10
2018-04-17T13:33:31.246Z,52.50
2018-04-17T13:35:59.489Z,50.80
2018-04-17T13:38:26.974Z,50.60
2018-04-17T13:40:55.220Z,47.60
2018-04-17T13:43:22.697Z,47.60
2018-04-17T13:45:50.212Z,46.40
2018-04-17T13:48:17.671Z,46.00
2018-04-17T13:50:45.147Z,43.30
2018-04-17T13:53:12.623Z,42.60
2018-04-17T13:55:40.099Z,40.60
2018-04-17T13:58:08.644Z,38.20
2018-04-17T14:00:36.142Z,38.10
2018-04-17T14:03:04.363Z,39.50
2018-04-17T14:05:31.878Z,39.40
2018-04-17T14:08:00.108Z,38.20
2018-04-17T14:10:27.603Z,38.10
2018-04-17T14:12:55.854Z,38.50
2018-04-17T14:15:23.335Z,38.60
2018-04-17T14:17:51.584Z,37.00
2018-04-17T14:20:19.110Z,37.00
2018-04-17T14:22:46.590Z,37.40
2018-04-17T14:25:14.068Z,37.90
2018-04-17T14:27:41.548Z,37.40
2018-04-17T14:30:09.828Z,37.50
2018-04-17T14:32:37.405Z,37.50
2018-04-17T14:35:04.881Z,36.00
2018-04-17T14:37:32.371Z,34.90
2018-04-17T14:39:59.865Z,34.30
2018-04-17T14:42:27.329Z,34.00
2018-04-17T14:44:54.893Z,33.30
2018-04-17T14:47:22.411Z,33.40
2018-04-17T14:49:50.682Z,33.30
2018-04-17T14:52:18.180Z,33.30
2018-04-17T14:54:45.693Z,33.00
2018-04-17T14:57:13.248Z,32.80
2018-04-17T14:59:40.711Z,31.50
2018-04-17T15:02:08.270Z,31.60
2018-04-17T15:04:35.735Z,31.90
2018-04-17T15:07:03.228Z,31.90
2018-04-17T15:09:30.688Z,31.90
2018-04-17T15:11:58.184Z,31.50
2018-04-17T15:14:25.642Z,30.80
2018-04-17T15:16:53.145Z,29.90
2018-04-17T15:19:20.612Z,29.70
2018-04-17T15:21:48.095Z,28.20
2018-04-17T15:24:15.562Z,27.90
2018-04-17T15:26:43.048Z,26.80
2018-04-17T15:29:10.511Z,26.00
2018-04-17T15:31:38.765Z,26.10
2018-04-17T15:34:06.228Z,26.10
2018-04-17T15:36:33.712Z,26.20
2018-04-17T15:39:01.944Z,26.80
2018-04-17T15:41:29.535Z,26.70
2018-04-17T15:43:57.808Z,25.70
2018-04-17T15:46:25.299Z,25.70
2018-04-17T15:48:52.934Z,25.70
2018-04-17T15:51:21.200Z,26.40
2018-04-17T15:53:48.687Z,26.40
2018-04-17T15:56:16.189Z,26.60
2018-04-17T15:58:43.659Z,27.00
2018-04-17T16:01:11.139Z,26.80
2018-04-17T16:03:39.373Z,27.20
2018-04-17T16:06:06.859Z,27.10
2018-04-17T16:08:34.367Z,27.40
2018-04-17T16:11:01.855Z,27.40
2018-04-17T16:13:29.331Z,28.60
2018-04-17T16:15:56.833Z,29.60
2018-04-17T16:18:24.337Z,30.30
2018-04-17T16:20:51.919Z,32.10
2018-04-17T16:23:20.163Z,34.50
2018-04-17T16:25:47.635Z,34.50
2018-04-17T16:28:15.091Z,35.60
2018-04-17T16:30:42.819Z,36.30
2018-04-17T16:33:10.288Z,36.60
2018-04-17T16:35:37.783Z,38.40
2018-04-17T16:38:06.016Z,40.30
2018-04-17T16:40:33.523Z,40.30
2018-04-17T16:43:01.749Z,41.60
2018-04-17T16:45:29.228Z,41.60
2018-04-17T16:47:56.699Z,42.60
2018-04-17T16:50:24.963Z,44.80
2018-04-17T16:52:52.456Z,44.30
2018-04-17T16:55:19.917Z,45.00
2018-04-17T16:57:48.184Z,47.40
2018-04-17T17:00:16.419Z,47.70
2018-04-17T17:02:43.902Z,47.60
2018-04-17T17:05:11.373Z,48.40
2018-04-17T17:07:39.625Z,49.70
2018-04-17T17:10:07.105Z,49.10
2018-04-17T17:12:35.359Z,51.00
2018-04-17T17:15:02.862Z,51.00
2018-04-17T17:17:30.339Z,51.10
2018-04-17T17:19:57.802Z,51.90
2018-04-17T17:22:25.296Z,51.90
2018-04-17T17:24:52.789Z,52.50
2018-04-17T17:27:20.288Z,53.10
2018-04-17T17:29:47.809Z,52.80
2018-04-17T17:32:15.318Z,54.50
2018-04-17T17:34:42.891Z,55.60
2018-04-17T17:37:11.147Z,56.80
2018-04-17T17:39:39.432Z,57.10
2018-04-17T17:42:06.938Z,57.00
2018-04-17T17:44:34.395Z,57.40
2018-04-17T17:47:01.909Z,58.00
2018-04-17T17:49:30.156Z,60.20
2018-04-17T17:51:57.656Z,60.20
2018-04-17T17:54:25.919Z,61.70
2018-04-17T17:56:53.407Z,61.60
2018-04-17T17:59:20.879Z,62.90
2018-04-17T18:01:48.386Z,62.40
2018-04-17T18:04:15.863Z,63.30
2018-04-17T18:06:44.116Z,64.20
2018-04-17T18:09:11.598Z,64.20
2018-04-17T18:11:39.966Z,65.40
2018-04-17T18:14:08.211Z,65.90
2018-04-17T18:16:35.699Z,65.90
2018-04-17T18:19:03.159Z,66.30
2018-04-17T18:21:31.407Z,66.70
2018-04-17T18:23:58.905Z,66.70
2018-04-17T18:26:26.418Z,68.00
2018-04-17T18:28:53.886Z,67.60
2018-04-17T18:31:21.365Z,68.10
2018-04-17T18:33:49.613Z,69.00
2018-04-17T18:36:17.092Z,68.90
2018-04-17T18:38:45.535Z,69.60
2018-04-17T18:41:13.051Z,69.50
2018-04-17T18:43:40.596Z,70.20
2018-04-17T18:46:08.840Z,70.70
2018-04-17T18:48:36.313Z,70.60
2018-04-17T18:51:03.815Z,71.10
2018-04-17T18:53:31.298Z,70.80
2018-04-17T18:55:58.787Z,71.30
2018-04-17T18:58:26.387Z,72.40
2018-04-17T19:00:53.851Z,72.80
2018-04-17T19:03:21.408Z,74.00
2018-04-17T19:05:48.949Z,73.40
2018-04-17T19:08:16.429Z,73.80
2018-04-17T19:10:43.904Z,75.20
2018-04-17T19:13:11.401Z,74.90
2018-04-17T19:15:39.639Z,76.50
2018-04-17T19:18:07.291Z,75.60
2018-04-17T19:20:34.830Z,76.00
2018-04-17T19:23:02.339Z,76.40
2018-04-17T19:25:29.807Z,76.20
2018-04-17T19:27:58.138Z,78.20
2018-04-17T19:30:25.620Z,77.90
2018-04-17T19:32:53.134Z,78.10
2018-04-17T19:35:20.599Z,78.80
2018-04-17T19:37:48.127Z,79.20
2018-04-17T19:40:16.410Z,80.20
2018-04-17T19:42:43.919Z,80.00
2018-04-17T19:45:11.405Z,80.30
2018-04-17T19:47:38.912Z,80.30
2018-04-17T19:50:06.372Z,80.90
2018-04-17T19:52:33.858Z,81.00
2018-04-17T19:55:01.317Z,81.30
2018-04-17T19:57:28.835Z,81.70
2018-04-17T19:59:56.303Z,81.40
2018-04-17T20:02:23.848Z,81.90
2018-04-17T20:04:51.410Z,82.10
2018-04-17T20:07:18.889Z,82.40
2018-04-17T20:09:46.409Z,82.60
2018-04-17T20:12:13.949Z,83.20
2018-04-17T20:14:42.263Z,84.30
2018-04-17T20:17:10.525Z,84.10
2018-04-17T20:19:38.068Z,84.00
2018-04-17T20:22:06.310Z,85.10
2018-04-17T20:24:33.793Z,85.10
2018-04-17T20:27:02.075Z,85.30
2018-04-17T20:29:30.390Z,85.50
2018-04-17T20:31:57.891Z,85.40
2018-04-17T20:34:25.401Z,85.80
2018-04-17T20:36:52.904Z,86.20
2018-04-17T20:39:20.385Z,86.50
2018-04-17T20:41:48.788Z,86.90
2018-04-17T20:44:16.279Z,86.90
2018-04-17T20:46:43.813Z,87.70
2018-04-17T20:49:11.290Z,87.40
2018-04-17T20:51:38.773Z,87.70
2018-04-17T20:54:06.276Z,88.00
2018-04-17T20:56:33.761Z,88.10
2018-04-17T20:59:01.292Z,88.20
2018-04-17T21:01:28.781Z,88.30
2018-04-17T21:03:56.263Z,88.70
2018-04-17T21:06:23.941Z,89.00
2018-04-17T21:08:52.215Z,89.00
2018-04-17T21:11:20.449Z,89.40
2018-04-17T21:13:47.941Z,89.10
2018-04-17T21:16:16.260Z,89.80
2018-04-17T21:18:43.743Z,89.70
2018-04-17T21:21:11.212Z,89.80
2018-04-17T21:23:38.693Z,90.00
2018-04-17T21:26:06.988Z,90.10
2018-04-17T21:28:34.555Z,90.10
2018-04-17T21:31:02.096Z,90.00
2018-04-17T21:33:30.363Z,90.10
2018-04-17T21:35:58.609Z,90.40
2018-04-17T21:38:26.091Z,90.20
2018-04-17T21:40:53.555Z,90.20
2018-04-17T21:43:21.831Z,90.40
2018-04-17T21:45:50.080Z,90.50
2018-04-17T21:48:17.562Z,90.50
2018-04-17T21:50:45.818Z,90.70
2018-04-17T21:53:14.807Z,90.80
2018-04-17T21:55:43.858Z,91.00
2018-04-17T21:58:11.387Z,90.90
2018-04-17T22:00:38.832Z,91.00
2018-04-17T22:03:06.432Z,91.20
2018-04-17T22:08:01.630Z,91.20
2018-04-17T22:10:30.034Z,91.40
2018-04-17T22:12:57.534Z,91.30
2018-04-17T22:15:25.041Z,91.60
2018-04-17T22:17:52.523Z,91.30
2018-04-17T22:20:20.014Z,91.70
2018-04-17T22:22:47.517Z,91.50
2018-04-17T22:25:15.027Z,91.70
2018-04-17T22:27:42.540Z,91.80
2018-04-17T22:30:10.004Z,91.90
2018-04-17T22:32:37.508Z,92.00
2018-04-17T22:35:05.782Z,92.10
2018-04-17T22:37:33.297Z,92.00
2018-04-17T22:40:00.775Z,92.40
2018-04-17T22:42:28.341Z,92.40
2018-04-17T22:44:55.831Z,92.50
2018-04-17T22:47:24.127Z,92.80
2018-04-17T22:49:51.591Z,92.80
2018-04-17T22:52:19.134Z,92.90
2018-04-17T22:54:47.399Z,93.40
2018-04-17T22:57:15.659Z,93.50
2018-04-17T22:59:43.199Z,93.50
2018-04-17T23:02:10.723Z,93.70
2018-04-17T23:04:38.284Z,93.80
2018-04-17T23:07:05.840Z,94.00
2018-04-17T23:09:33.335Z,94.00
2018-04-17T23:12:00.864Z,94.00
2018-04-17T23:14:28.380Z,93.90
2018-04-17T23:16:56.629Z,93.90
2018-04-17T23:19:24.133Z,93.90
2018-04-17T23:21:51.669Z,93.90
2018-04-17T23:24:19.937Z,94.00
2018-04-17T23:26:47.482Z,94.00
2018-04-17T23:29:15.817Z,94.10
2018-04-17T23:31:43.317Z,94.10
2018-04-17T23:34:10.843Z,94.30
2018-04-17T23:36:38.345Z,94.50
2018-04-17T23:39:05.862Z,94.60
2018-04-17T23:41:33.354Z,94.60
2018-04-17T23:44:00.847Z,94.70
2018-04-17T23:46:29.387Z,94.90
2018-04-17T23:48:56.954Z,94.90
2018-04-17T23:51:24.437Z,95.00
2018-04-17T23:53:52.732Z,95.10
2018-04-17T23:56:20.218Z,95.10
2018-04-17T23:58:47.732Z,95.00
